createdAt,value
2023-03-26T00:01:16.878Z,94775.84
2023-03-26T00:03:44.970Z,94771.88
2023-03-26T00:06:13.564Z,94773.19
2023-03-26T00:08:41.710Z,94763.03
2023-03-26T00:11:12.843Z,94770.56
2023-03-26T00:13:39.480Z,94773.00
2023-03-26T00:16:06.362Z,94780.13
2023-03-26T00:18:33.551Z,94784.50
2023-03-26T00:21:02.116Z,94774.94
2023-03-26T00:23:29.401Z,94773.66
2023-03-26T00:25:56.640Z,94772.75
2023-03-26T00:28:24.004Z,94761.50
2023-03-26T00:30:57.218Z,94770.34
2023-03-26T00:33:24.049Z,94769.00
2023-03-26T00:35:58.899Z,94766.88
2023-03-26T00:38:27.098Z,94777.69
2023-03-26T00:40:54.558Z,94799.22
2023-03-26T00:43:22.467Z,94809.72
2023-03-26T00:45:51.365Z,94791.28
2023-03-26T00:48:18.306Z,94773.75
2023-03-26T00:50:46.204Z,94778.34
2023-03-26T00:53:13.522Z,94770.50
2023-03-26T00:55:41.244Z,94765.94
2023-03-26T00:58:08.632Z,94760.94
2023-03-26T01:00:36.472Z,94758.16
2023-03-26T01:03:04.472Z,94773.16
2023-03-26T01:05:34.045Z,94784.09
2023-03-26T01:08:05.365Z,94757.81
2023-03-26T01:10:31.923Z,94740.41
2023-03-26T01:12:58.473Z,94747.06
2023-03-26T01:15:24.992Z,94738.63
2023-03-26T01:17:51.586Z,94735.75
2023-03-26T01:20:24.097Z,94716.34
2023-03-26T01:22:53.023Z,94715.41
2023-03-26T01:25:21.581Z,94699.38
2023-03-26T01:27:54.515Z,94676.84
2023-03-26T01:30:34.851Z,94666.75
2023-03-26T01:33:02.658Z,94677.81
2023-03-26T01:35:33.477Z,94660.78
2023-03-26T01:38:02.853Z,94664.50
2023-03-26T01:40:37.111Z,94676.47
2023-03-26T01:43:11.213Z,94673.09
2023-03-26T01:45:40.154Z,94672.44
2023-03-26T01:48:07.086Z,94673.16
2023-03-26T01:50:33.663Z,94665.22
2023-03-26T01:53:00.568Z,94659.38
2023-03-26T01:55:35.682Z,94650.78
2023-03-26T01:58:15.791Z,94633.84
2023-03-26T02:00:48.824Z,94627.25
2023-03-26T02:03:26.629Z,94630.41
2023-03-26T02:06:14.992Z,94624.50
2023-03-26T02:08:54.212Z,94630.69
2023-03-26T02:11:21.600Z,94638.00
2023-03-26T02:13:51.245Z,94633.19
2023-03-26T02:16:17.799Z,94624.44
2023-03-26T02:18:46.056Z,94616.56
2023-03-26T02:21:21.028Z,94622.44
2023-03-26T02:23:50.640Z,94614.25
2023-03-26T02:26:19.637Z,94607.25
2023-03-26T02:28:46.135Z,94619.94
2023-03-26T02:31:12.735Z,94610.25
2023-03-26T02:33:39.745Z,94593.09
2023-03-26T02:36:07.471Z,94592.63
2023-03-26T02:38:34.715Z,94597.78
2023-03-26T02:41:02.398Z,94591.19
2023-03-26T02:43:29.131Z,94584.78
2023-03-26T02:45:55.968Z,94577.91
2023-03-26T02:48:22.898Z,94575.69
2023-03-26T02:50:49.727Z,94574.72
2023-03-26T02:53:16.840Z,94563.69
2023-03-26T02:55:43.375Z,94564.22
2023-03-26T02:58:10.543Z,94562.84
2023-03-26T03:00:37.058Z,94561.22
2023-03-26T03:03:03.840Z,94563.03
2023-03-26T03:05:31.731Z,94546.97
2023-03-26T03:07:58.817Z,94541.50
2023-03-26T03:10:32.666Z,94531.06
2023-03-26T03:12:59.534Z,94538.69
2023-03-26T03:15:26.135Z,94530.25
2023-03-26T03:17:52.697Z,94524.75
2023-03-26T03:20:19.175Z,94528.16
2023-03-26T03:22:45.676Z,94523.63
2023-03-26T03:25:12.166Z,94515.34
2023-03-26T03:27:38.690Z,94497.47
2023-03-26T03:30:06.357Z,94493.66
2023-03-26T03:32:33.094Z,94500.72
2023-03-26T03:34:59.633Z,94492.03
2023-03-26T03:37:26.246Z,94498.69
2023-03-26T03:39:52.818Z,94495.31
2023-03-26T03:42:19.326Z,94492.78
2023-03-26T03:44:45.879Z,94484.06
2023-03-26T03:47:12.409Z,94491.84
2023-03-26T03:49:39.616Z,94486.75
2023-03-26T03:52:06.408Z,94476.59
2023-03-26T03:54:33.194Z,94458.75
2023-03-26T03:56:59.861Z,94473.16
2023-03-26T03:59:26.407Z,94462.16
2023-03-26T04:02:24.288Z,94463.31
2023-03-26T04:04:50.892Z,94459.81
2023-03-26T04:07:17.367Z,94464.66
2023-03-26T04:09:43.855Z,94451.53
2023-03-26T04:12:10.349Z,94461.56
2023-03-26T04:14:36.857Z,94452.53
2023-03-26T04:17:03.415Z,94460.50
2023-03-26T04:19:29.936Z,94461.66
2023-03-26T04:21:56.558Z,94452.31
2023-03-26T04:24:23.038Z,94459.91
2023-03-26T04:26:49.610Z,94447.56
2023-03-26T04:29:16.388Z,94448.03
2023-03-26T04:31:42.961Z,94439.69
2023-03-26T04:34:23.286Z,94436.19
2023-03-26T04:36:49.835Z,94446.38
2023-03-26T04:39:16.321Z,94452.78
2023-03-26T04:41:42.912Z,94442.59
2023-03-26T04:44:09.384Z,94436.97
2023-03-26T04:46:35.900Z,94425.34
2023-03-26T04:49:02.509Z,94428.09
2023-03-26T04:51:35.767Z,94415.28
2023-03-26T04:54:02.405Z,94419.28
2023-03-26T04:56:34.929Z,94436.53
2023-03-26T04:59:02.237Z,94438.69
2023-03-26T05:01:28.842Z,94434.63
2023-03-26T05:03:55.475Z,94431.75
2023-03-26T05:06:22.107Z,94426.56
2023-03-26T05:08:48.923Z,94423.97
2023-03-26T05:11:15.608Z,94437.78
2023-03-26T05:13:42.075Z,94439.78
2023-03-26T05:16:09.838Z,94443.22
2023-03-26T05:18:36.462Z,94441.44
2023-03-26T05:21:03.142Z,94447.72
2023-03-26T05:23:29.638Z,94431.13
2023-03-26T05:25:56.183Z,94427.38
2023-03-26T05:28:22.787Z,94414.72
2023-03-26T05:30:49.333Z,94399.88
2023-03-26T05:33:15.871Z,94385.28
2023-03-26T05:35:42.463Z,94375.84
2023-03-26T05:38:09.007Z,94374.91
2023-03-26T05:40:35.510Z,94375.25
2023-03-26T05:43:02.359Z,94389.09
2023-03-26T05:45:29.054Z,94375.72
2023-03-26T05:47:55.593Z,94364.09
2023-03-26T05:50:22.963Z,94370.97
2023-03-26T05:52:51.039Z,94371.31
2023-03-26T05:55:17.762Z,94372.31
2023-03-26T05:57:44.263Z,94376.63
2023-03-26T06:00:11.171Z,94368.41
2023-03-26T06:02:37.777Z,94376.72
2023-03-26T06:05:04.603Z,94380.97
2023-03-26T06:07:31.128Z,94411.59
2023-03-26T06:09:57.606Z,94391.09
2023-03-26T06:12:24.094Z,94393.56
2023-03-26T06:14:50.618Z,94418.19
2023-03-26T06:17:17.118Z,94430.47
2023-03-26T06:19:43.613Z,94421.16
2023-03-26T06:22:10.210Z,94435.94
2023-03-26T06:24:36.704Z,94439.75
2023-03-26T06:27:03.235Z,94427.25
2023-03-26T06:29:29.709Z,94426.34
2023-03-26T06:31:59.574Z,94396.59
2023-03-26T06:34:29.988Z,94400.63
2023-03-26T06:36:56.527Z,94406.84
2023-03-26T06:39:23.000Z,94400.41
2023-03-26T06:41:49.449Z,94404.53
2023-03-26T06:44:15.939Z,94400.09
2023-03-26T06:46:42.476Z,94395.94
2023-03-26T06:49:09.105Z,94386.84
2023-03-26T06:51:35.810Z,94382.06
2023-03-26T06:54:02.311Z,94377.28
2023-03-26T06:56:28.808Z,94365.47
2023-03-26T06:58:55.301Z,94367.75
2023-03-26T07:01:22.121Z,94366.06
2023-03-26T07:03:51.799Z,94358.75
2023-03-26T07:06:18.359Z,94369.63
2023-03-26T07:08:44.869Z,94387.53
2023-03-26T07:11:11.448Z,94375.06
2023-03-26T07:13:37.966Z,94384.94
2023-03-26T07:16:04.852Z,94367.19
2023-03-26T07:18:31.370Z,94377.94
2023-03-26T07:20:58.206Z,94371.84
2023-03-26T07:23:25.054Z,94362.94
2023-03-26T07:25:51.869Z,94364.97
2023-03-26T07:28:32.841Z,94352.13
2023-03-26T07:31:33.631Z,94339.22
2023-03-26T07:34:21.361Z,94345.50
2023-03-26T07:36:57.487Z,94345.03
2023-03-26T07:39:43.090Z,94342.53
2023-03-26T07:42:27.889Z,94354.97
2023-03-26T07:45:09.439Z,94345.97
2023-03-26T07:47:36.468Z,94346.47
2023-03-26T07:50:03.545Z,94354.22
2023-03-26T07:52:30.389Z,94376.09
2023-03-26T07:54:57.160Z,94379.63
2023-03-26T07:57:35.622Z,94387.34
2023-03-26T08:00:12.166Z,94383.28
2023-03-26T08:02:47.913Z,94397.56
2023-03-26T08:05:45.530Z,94386.94
2023-03-26T08:08:58.373Z,94343.94
2023-03-26T08:11:57.661Z,94329.03
2023-03-26T08:14:44.152Z,94331.56
2023-03-26T08:17:45.039Z,94357.34
2023-03-26T08:20:31.565Z,94359.81
2023-03-26T08:24:00.334Z,94369.03
2023-03-26T08:27:15.873Z,94356.41
2023-03-26T08:30:25.260Z,94338.50
2023-03-26T08:33:13.996Z,94374.31
2023-03-26T08:36:00.500Z,94381.75
2023-03-26T08:38:47.073Z,94388.69
2023-03-26T08:41:48.853Z,94385.84
2023-03-26T08:44:38.323Z,94375.03
2023-03-26T08:47:36.958Z,94379.78
2023-03-26T08:50:34.495Z,94367.69
2023-03-26T08:53:38.753Z,94381.72
2023-03-26T08:56:29.505Z,94371.47
2023-03-26T08:59:05.288Z,94365.78
2023-03-26T09:01:31.753Z,94374.25
2023-03-26T09:04:34.930Z,94370.25
2023-03-26T09:07:26.342Z,94367.47
2023-03-26T09:10:14.675Z,94373.81
2023-03-26T09:13:01.058Z,94371.94
2023-03-26T09:15:39.458Z,94377.56
2023-03-26T09:18:12.157Z,94357.78
2023-03-26T09:21:17.058Z,94355.19
2023-03-26T09:24:02.257Z,94358.59
2023-03-26T09:26:38.053Z,94360.31
2023-03-26T09:29:23.102Z,94372.41
2023-03-26T09:32:26.760Z,94350.88
2023-03-26T09:35:13.542Z,94353.47
2023-03-26T09:37:56.320Z,94341.50
2023-03-26T09:40:42.983Z,94349.50
2023-03-26T09:43:35.413Z,94343.44
2023-03-26T09:46:11.150Z,94329.50
2023-03-26T09:49:12.992Z,94317.31
2023-03-26T09:52:15.993Z,94306.78
2023-03-26T09:55:05.126Z,94306.00
2023-03-26T09:57:34.395Z,94321.31
2023-03-26T10:00:18.715Z,94327.25
2023-03-26T10:03:13.219Z,94327.88
2023-03-26T10:06:20.097Z,94324.78
2023-03-26T10:08:55.700Z,94324.25
2023-03-26T10:11:27.384Z,94338.84
2023-03-26T10:14:19.727Z,94344.34
2023-03-26T10:16:55.738Z,94335.38
2023-03-26T10:19:22.170Z,94341.03
2023-03-26T10:22:16.942Z,94337.97
2023-03-26T10:25:28.190Z,94326.22
2023-03-26T10:28:28.625Z,94332.63
2023-03-26T10:31:01.708Z,94333.56
2023-03-26T10:33:28.219Z,94347.75
2023-03-26T10:36:32.355Z,94368.25
2023-03-26T10:39:01.559Z,94370.28
2023-03-26T10:41:43.651Z,94361.97
2023-03-26T10:44:40.940Z,94361.16
2023-03-26T10:47:10.300Z,94360.38
2023-03-26T10:50:05.850Z,94362.06
2023-03-26T10:52:40.530Z,94365.66
2023-03-26T10:55:47.484Z,94363.47
2023-03-26T10:58:48.410Z,94364.50
2023-03-26T11:01:51.604Z,94369.78
2023-03-26T11:04:39.556Z,94356.72
2023-03-26T11:07:21.219Z,94341.03
2023-03-26T11:09:54.112Z,94341.28
2023-03-26T11:12:29.407Z,94342.94
2023-03-26T11:15:21.703Z,94333.84
2023-03-26T11:18:06.015Z,94338.09
2023-03-26T11:20:48.712Z,94338.81
2023-03-26T11:23:36.148Z,94348.53
2023-03-26T11:26:05.596Z,94366.44
2023-03-26T11:29:03.998Z,94364.50
2023-03-26T11:31:45.724Z,94347.97
2023-03-26T11:34:17.490Z,94340.13
2023-03-26T11:36:48.916Z,94344.59
2023-03-26T11:39:23.515Z,94360.31
2023-03-26T11:41:53.316Z,94357.19
2023-03-26T11:44:39.728Z,94362.72
2023-03-26T11:47:10.148Z,94331.53
2023-03-26T11:49:37.444Z,94327.50
2023-03-26T11:52:03.977Z,94317.97
2023-03-26T11:54:30.620Z,94317.84
2023-03-26T11:57:05.120Z,94308.03
2023-03-26T11:59:57.993Z,94254.25
2023-03-26T12:02:28.879Z,94263.72
2023-03-26T12:05:14.233Z,94261.88
2023-03-26T12:07:52.525Z,94248.75
2023-03-26T12:10:25.178Z,94239.25
2023-03-26T12:12:54.809Z,94236.50
2023-03-26T12:15:21.731Z,94218.84
2023-03-26T12:17:50.915Z,94222.75
2023-03-26T12:20:26.847Z,94226.25
2023-03-26T12:23:01.364Z,94239.03
2023-03-26T12:25:30.000Z,94246.13
2023-03-26T12:28:17.140Z,94237.16
2023-03-26T12:30:59.448Z,94255.53
2023-03-26T12:33:34.599Z,94230.56
2023-03-26T12:36:20.053Z,94205.22
2023-03-26T12:38:46.567Z,94195.41
2023-03-26T12:44:44.186Z,94191.13
2023-03-26T12:44:55.849Z,94197.69
2023-03-26T12:47:59.727Z,94213.69
2023-03-26T12:50:06.940Z,94252.66
2023-03-26T12:52:48.614Z,94258.19
2023-03-26T12:55:24.179Z,94269.31
2023-03-26T12:58:14.764Z,94275.38
2023-03-26T13:01:29.570Z,94294.00
2023-03-26T13:03:59.645Z,94314.53
2023-03-26T13:07:00.226Z,94366.59
2023-03-26T13:09:46.826Z,94358.34
2023-03-26T13:12:53.353Z,94342.56
2023-03-26T13:16:00.620Z,94296.03
2023-03-26T13:18:57.313Z,94275.13
2023-03-26T13:21:57.579Z,94261.66
2023-03-26T13:24:33.656Z,94278.19
2023-03-26T13:27:10.960Z,94281.47
2023-03-26T13:29:56.217Z,94283.69
2023-03-26T13:32:49.395Z,94291.38
2023-03-26T13:35:43.626Z,94289.78
2023-03-26T13:38:28.683Z,94286.09
2023-03-26T13:41:06.811Z,94302.59
2023-03-26T13:43:45.359Z,94300.78
2023-03-26T13:46:32.421Z,94285.19
2023-03-26T13:49:13.729Z,94297.06
2023-03-26T13:51:44.264Z,94286.78
2023-03-26T13:54:40.079Z,94277.91
2023-03-26T13:57:18.730Z,94291.28
2023-03-26T14:00:05.426Z,94295.66
2023-03-26T14:02:53.613Z,94284.66
2023-03-26T14:05:27.240Z,94286.63
2023-03-26T14:08:06.787Z,94290.84
2023-03-26T14:10:37.204Z,94280.09
2023-03-26T14:13:15.295Z,94286.09
2023-03-26T14:15:47.123Z,94300.28
2023-03-26T14:18:22.858Z,94307.13
2023-03-26T14:21:26.967Z,94311.28
2023-03-26T14:24:20.422Z,94312.97
2023-03-26T14:27:05.732Z,94316.59
2023-03-26T14:29:56.745Z,94312.44
2023-03-26T14:32:45.954Z,94312.66
2023-03-26T14:35:37.112Z,94308.81
2023-03-26T14:38:15.005Z,94302.00
2023-03-26T14:41:19.126Z,94300.22
2023-03-26T14:44:06.265Z,94304.56
2023-03-26T14:46:55.766Z,94305.72
2023-03-26T14:49:51.110Z,94299.50
2023-03-26T14:52:38.719Z,94306.69
2023-03-26T14:55:31.689Z,94314.78
2023-03-26T14:58:20.030Z,94308.72
2023-03-26T15:01:23.585Z,94306.34
2023-03-26T15:04:14.793Z,94313.09
2023-03-26T15:07:02.937Z,94314.03
2023-03-26T15:09:54.922Z,94302.28
2023-03-26T15:12:24.331Z,94302.13
2023-03-26T15:14:50.811Z,94303.13
2023-03-26T15:17:36.069Z,94308.47
2023-03-26T15:20:26.500Z,94310.91
2023-03-26T15:23:36.514Z,94305.25
2023-03-26T15:26:42.013Z,94294.25
2023-03-26T15:29:23.619Z,94293.13
2023-03-26T15:32:25.183Z,94292.28
2023-03-26T15:35:10.176Z,94291.84
2023-03-26T15:38:14.146Z,94287.16
2023-03-26T15:40:47.926Z,94288.19
2023-03-26T15:43:19.910Z,94289.84
2023-03-26T15:46:11.327Z,94281.28
2023-03-26T15:49:10.020Z,94272.38
2023-03-26T15:51:55.249Z,94267.84
2023-03-26T15:54:29.312Z,94259.91
2023-03-26T15:57:01.805Z,94255.31
2023-03-26T15:59:34.126Z,94267.56
2023-03-26T16:02:16.970Z,94249.84
2023-03-26T16:04:50.267Z,94252.66
2023-03-26T16:07:43.318Z,94261.56
2023-03-26T16:10:21.627Z,94248.88
2023-03-26T16:13:14.814Z,94243.63
2023-03-26T16:15:41.847Z,94243.69
2023-03-26T16:18:11.085Z,94237.25
2023-03-26T16:20:47.839Z,94243.34
2023-03-26T16:23:47.763Z,94233.66
2023-03-26T16:26:36.693Z,94233.06
2023-03-26T16:29:19.530Z,94231.00
2023-03-26T16:32:33.485Z,94214.78
2023-03-26T16:35:08.539Z,94216.66
2023-03-26T16:37:48.369Z,94212.38
2023-03-26T16:40:17.816Z,94214.75
2023-03-26T16:42:55.159Z,94206.63
2023-03-26T16:45:45.306Z,94196.00
2023-03-26T16:48:40.988Z,94187.38
2023-03-26T16:51:16.240Z,94190.53
2023-03-26T16:54:04.331Z,94185.28
2023-03-26T16:56:44.078Z,94187.34
2023-03-26T16:59:37.244Z,94180.00
2023-03-26T17:02:13.393Z,94187.38
2023-03-26T17:04:46.531Z,94178.09
2023-03-26T17:07:32.643Z,94177.34
2023-03-26T17:10:28.694Z,94181.16
2023-03-26T17:13:03.421Z,94185.13
2023-03-26T17:16:09.938Z,94179.47
2023-03-26T17:19:09.536Z,94188.66
2023-03-26T17:21:55.317Z,94187.84
2023-03-26T17:24:24.869Z,94185.28
2023-03-26T17:27:16.102Z,94184.16
2023-03-26T17:29:55.114Z,94175.38
2023-03-26T17:32:21.817Z,94171.44
2023-03-26T17:34:51.449Z,94169.34
2023-03-26T17:37:17.885Z,94169.25
2023-03-26T17:39:44.304Z,94168.38
2023-03-26T17:42:18.388Z,94167.19
2023-03-26T17:44:50.682Z,94164.34
2023-03-26T17:47:26.509Z,94163.09
2023-03-26T17:50:22.244Z,94160.84
2023-03-26T17:52:57.560Z,94161.72
2023-03-26T17:55:33.028Z,94160.31
2023-03-26T17:58:01.396Z,94149.47
2023-03-26T18:00:42.863Z,94153.16
2023-03-26T18:03:18.764Z,94141.06
2023-03-26T18:05:46.366Z,94138.78
2023-03-26T18:08:41.422Z,94142.06
2023-03-26T18:11:24.595Z,94145.00
2023-03-26T18:14:16.909Z,94149.47
2023-03-26T18:16:45.570Z,94142.31
2023-03-26T18:19:17.672Z,94157.38
2023-03-26T18:22:05.017Z,94165.00
2023-03-26T18:24:36.699Z,94188.50
2023-03-26T18:27:12.278Z,94195.66
2023-03-26T18:29:43.363Z,94195.75
2023-03-26T18:32:09.855Z,94202.66
2023-03-26T18:34:47.281Z,94197.28
2023-03-26T18:37:22.178Z,94206.59
2023-03-26T18:40:02.220Z,94206.13
2023-03-26T18:42:30.636Z,94200.53
2023-03-26T18:45:00.542Z,94204.09
2023-03-26T18:47:29.311Z,94199.16
2023-03-26T18:49:57.129Z,94201.78
2023-03-26T18:52:23.666Z,94199.25
2023-03-26T18:54:55.416Z,94197.19
2023-03-26T18:57:28.251Z,94193.75
2023-03-26T19:00:00.610Z,94194.97
2023-03-26T19:02:27.334Z,94192.59
2023-03-26T19:04:54.120Z,94190.75
2023-03-26T19:07:25.034Z,94180.34
2023-03-26T19:09:52.959Z,94182.50
2023-03-26T19:12:27.916Z,94188.59
2023-03-26T19:15:06.280Z,94182.66
2023-03-26T19:17:39.191Z,94172.69
2023-03-26T19:20:08.438Z,94165.53
2023-03-26T19:22:37.664Z,94163.59
2023-03-26T19:25:05.797Z,94155.44
2023-03-26T19:27:32.506Z,94160.22
2023-03-26T19:29:59.012Z,94159.31
2023-03-26T19:32:30.550Z,94156.56
2023-03-26T19:34:59.201Z,94157.13
2023-03-26T19:37:28.023Z,94154.94
2023-03-26T19:40:02.227Z,94143.84
2023-03-26T19:42:43.209Z,94143.25
2023-03-26T19:45:21.748Z,94144.31
2023-03-26T19:47:59.999Z,94141.28
2023-03-26T19:50:35.524Z,94143.59
2023-03-26T19:53:17.282Z,94154.78
2023-03-26T19:55:58.242Z,94143.38
2023-03-26T19:58:30.041Z,94144.66
2023-03-26T20:00:56.837Z,94154.84
2023-03-26T20:03:44.833Z,94152.06
2023-03-26T20:06:23.664Z,94144.31
2023-03-26T20:08:56.727Z,94149.09
2023-03-26T20:11:33.365Z,94148.25
2023-03-26T20:14:05.609Z,94139.78
2023-03-26T20:16:33.732Z,94140.53
2023-03-26T20:19:00.771Z,94156.19
2023-03-26T20:21:27.296Z,94158.78
2023-03-26T20:23:53.781Z,94162.66
2023-03-26T20:26:21.801Z,94164.44
2023-03-26T20:28:53.202Z,94170.22
2023-03-26T20:31:25.453Z,94162.56
2023-03-26T20:33:53.207Z,94161.44
2023-03-26T20:36:33.201Z,94157.53
2023-03-26T20:39:00.978Z,94165.63
2023-03-26T20:41:29.659Z,94157.31
2023-03-26T20:43:56.168Z,94155.22
2023-03-26T20:46:31.309Z,94166.19
2023-03-26T20:48:58.754Z,94165.63
2023-03-26T20:51:25.351Z,94184.66
2023-03-26T20:53:51.847Z,94181.69
2023-03-26T20:56:19.438Z,94176.03
2023-03-26T20:58:50.629Z,94178.19
2023-03-26T21:01:22.235Z,94187.31
2023-03-26T21:03:48.750Z,94186.19
2023-03-26T21:06:15.218Z,94183.88
2023-03-26T21:08:42.962Z,94183.47
2023-03-26T21:11:27.464Z,94189.94
2023-03-26T21:14:05.700Z,94191.78
2023-03-26T21:16:32.586Z,94195.22
2023-03-26T21:18:59.339Z,94197.88
2023-03-26T21:21:31.885Z,94202.88
2023-03-26T21:24:09.766Z,94209.91
2023-03-26T21:26:45.213Z,94223.44
2023-03-26T21:29:11.898Z,94218.94
2023-03-26T21:31:38.791Z,94220.88
2023-03-26T21:34:05.593Z,94222.19
2023-03-26T21:36:32.507Z,94231.91
2023-03-26T21:39:00.434Z,94236.31
2023-03-26T21:41:35.529Z,94240.22
2023-03-26T21:44:03.006Z,94244.06
2023-03-26T21:46:30.138Z,94246.56
2023-03-26T21:48:56.786Z,94249.91
2023-03-26T21:51:23.681Z,94255.63
2023-03-26T21:53:53.126Z,94251.03
2023-03-26T21:56:44.947Z,94255.38
2023-03-26T21:59:49.449Z,94247.84
2023-03-26T22:02:23.463Z,94250.72
2023-03-26T22:05:12.753Z,94256.66
2023-03-26T22:07:51.471Z,94270.59
2023-03-26T22:10:18.476Z,94268.75
2023-03-26T22:12:44.977Z,94265.06
2023-03-26T22:15:11.841Z,94272.94
2023-03-26T22:17:38.746Z,94272.25
2023-03-26T22:20:06.101Z,94279.13
2023-03-26T22:22:34.971Z,94284.34
2023-03-26T22:25:01.489Z,94278.25
2023-03-26T22:27:28.021Z,94292.13
2023-03-26T22:29:54.519Z,94299.56
2023-03-26T22:32:20.996Z,94302.13
2023-03-26T22:34:47.485Z,94302.63
2023-03-26T22:37:14.023Z,94305.22
2023-03-26T22:39:40.546Z,94319.16
2023-03-26T22:42:07.027Z,94342.06
2023-03-26T22:44:33.543Z,94341.16
2023-03-26T22:47:00.128Z,94343.91
2023-03-26T22:49:27.049Z,94359.34
2023-03-26T22:51:54.730Z,94359.31
2023-03-26T22:54:21.236Z,94355.25
2023-03-26T22:56:47.810Z,94343.50
2023-03-26T22:59:14.304Z,94356.06
2023-03-26T23:01:40.837Z,94366.25
2023-03-26T23:04:07.455Z,94372.13
2023-03-26T23:06:34.138Z,94357.31
2023-03-26T23:09:03.322Z,94372.34
2023-03-26T23:11:30.172Z,94381.50
2023-03-26T23:13:56.735Z,94383.56
2023-03-26T23:16:23.387Z,94374.25
2023-03-26T23:18:49.973Z,94381.22
2023-03-26T23:21:18.743Z,94385.50
2023-03-26T23:23:47.604Z,94386.72
2023-03-26T23:26:14.336Z,94384.94
2023-03-26T23:28:41.173Z,94401.78
2023-03-26T23:31:09.686Z,94404.91
2023-03-26T23:33:37.905Z,94409.59
2023-03-26T23:36:07.453Z,94415.69
2023-03-26T23:38:43.399Z,94412.84
2023-03-26T23:41:15.707Z,94422.69
2023-03-26T23:43:53.400Z,94430.84
2023-03-26T23:46:24.769Z,94441.94
2023-03-26T23:48:51.753Z,94435.84
2023-03-26T23:51:19.010Z,94438.16
2023-03-26T23:53:46.311Z,94437.22
2023-03-26T23:56:13.040Z,94449.88
2023-03-26T23:58:40.072Z,94439.31
